createdAt,value
2022-07-28T00:00:55.138Z,101303.81
2022-07-28T00:03:00.985Z,101310.84
2022-07-28T00:05:05.413Z,101311.72
2022-07-28T00:07:09.679Z,101308.16
2022-07-28T00:09:14.312Z,101309.88
2022-07-28T00:11:18.324Z,101309.88
2022-07-28T00:13:22.927Z,101300.16
2022-07-28T00:15:27.430Z,101302.13
2022-07-28T00:17:32.009Z,101305.00
2022-07-28T00:19:38.316Z,101305.13
2022-07-28T00:21:42.544Z,101307.78
2022-07-28T00:23:47.018Z,101309.59
2022-07-28T00:25:51.131Z,101311.41
2022-07-28T00:27:55.441Z,101307.03
2022-07-28T00:29:59.549Z,101308.84
2022-07-28T00:32:03.796Z,101302.66
2022-07-28T00:34:09.033Z,101300.88
2022-07-28T00:36:15.042Z,101301.81
2022-07-28T00:38:19.496Z,101303.66
2022-07-28T00:40:47.793Z,101302.06
2022-07-28T00:42:51.649Z,101294.06
2022-07-28T00:44:56.757Z,101294.88
2022-07-28T00:47:01.103Z,101299.38
2022-07-28T00:49:05.534Z,101301.94
2022-07-28T00:51:10.464Z,101291.38
2022-07-28T00:53:16.010Z,101294.06
2022-07-28T00:55:20.258Z,101289.69
2022-07-28T00:57:23.719Z,101295.97
2022-07-28T00:59:27.874Z,101292.34
2022-07-28T01:01:31.543Z,101285.31
2022-07-28T01:03:37.628Z,101284.47
2022-07-28T01:05:49.566Z,101280.09
2022-07-28T01:08:02.668Z,101285.31
2022-07-28T01:10:12.527Z,101277.41
2022-07-28T01:12:25.294Z,101278.25
2022-07-28T01:14:36.424Z,101275.09
2022-07-28T01:16:46.631Z,101275.28
2022-07-28T01:18:54.958Z,101271.78
2022-07-28T01:21:03.624Z,101275.41
2022-07-28T01:23:30.805Z,101275.41
2022-07-28T01:25:48.579Z,101275.41
2022-07-28T01:28:05.018Z,101261.38
2022-07-28T01:30:13.560Z,101271.16
2022-07-28T01:32:22.219Z,101262.31
2022-07-28T01:34:32.166Z,101268.50
2022-07-28T01:36:41.170Z,101260.50
2022-07-28T01:38:47.557Z,101256.16
2022-07-28T01:40:53.995Z,101260.50
2022-07-28T01:43:01.361Z,101257.94
2022-07-28T01:45:08.270Z,101254.44
2022-07-28T01:47:12.505Z,101253.56
2022-07-28T01:49:19.530Z,101252.72
2022-07-28T01:51:26.548Z,101254.44
2022-07-28T01:53:37.810Z,101256.22
2022-07-28T01:55:44.835Z,101251.88
2022-07-28T01:57:50.718Z,101251.88
2022-07-28T01:59:56.326Z,101246.56
2022-07-28T02:02:01.491Z,101241.22
2022-07-28T02:04:06.859Z,101240.34
2022-07-28T02:06:13.634Z,101235.03
2022-07-28T02:08:20.333Z,101236.75
2022-07-28T02:10:26.796Z,101236.75
2022-07-28T02:12:29.879Z,101227.03
2022-07-28T02:14:36.469Z,101233.34
2022-07-28T02:16:43.027Z,101228.03
2022-07-28T02:18:48.367Z,101231.63
2022-07-28T02:20:53.540Z,101223.75
2022-07-28T02:22:59.648Z,101222.06
2022-07-28T02:25:03.928Z,101218.44
2022-07-28T02:27:13.184Z,101219.28
2022-07-28T02:29:48.077Z,101215.66
2022-07-28T02:31:51.827Z,101209.56
2022-07-28T02:34:02.410Z,101211.41
2022-07-28T02:36:11.482Z,101213.09
2022-07-28T02:38:24.179Z,101221.09
2022-07-28T02:40:32.597Z,101214.06
2022-07-28T02:42:38.071Z,101213.22
2022-07-28T02:44:45.265Z,101204.34
2022-07-28T02:46:52.991Z,101213.31
2022-07-28T02:49:07.013Z,101207.13
2022-07-28T02:51:13.594Z,101208.97
2022-07-28T02:53:18.923Z,101208.09
2022-07-28T02:55:26.117Z,101200.22
2022-07-28T02:57:32.871Z,101202.75
2022-07-28T02:59:37.930Z,101201.09
2022-07-28T03:01:45.397Z,101204.59
2022-07-28T03:03:51.271Z,101200.22
2022-07-28T03:05:59.811Z,101197.56
2022-07-28T03:08:04.539Z,101203.00
2022-07-28T03:10:09.950Z,101200.56
2022-07-28T03:12:16.518Z,101197.13
2022-07-28T03:14:21.201Z,101198.84
2022-07-28T03:16:25.465Z,101195.22
2022-07-28T03:18:29.984Z,101190.75
2022-07-28T03:20:35.176Z,101187.13
2022-07-28T03:22:39.991Z,101186.28
2022-07-28T03:24:48.924Z,101188.09
2022-07-28T03:26:59.742Z,101193.41
2022-07-28T03:29:06.275Z,101186.28
2022-07-28T03:31:14.485Z,101188.19
2022-07-28T03:33:20.312Z,101183.81
2022-07-28T03:35:26.138Z,101192.69
2022-07-28T03:37:35.832Z,101190.84
2022-07-28T03:39:47.361Z,101195.34
2022-07-28T03:41:54.038Z,101187.34
2022-07-28T03:43:58.887Z,101192.88
2022-07-28T03:46:07.597Z,101188.44
2022-07-28T03:48:15.813Z,101197.13
2022-07-28T03:50:20.352Z,101193.63
2022-07-28T03:52:24.743Z,101190.75
2022-07-28T03:54:30.488Z,101188.94
2022-07-28T03:56:34.981Z,101185.28
2022-07-28T03:58:39.286Z,101187.84
2022-07-28T04:00:43.540Z,101184.34
2022-07-28T04:02:49.673Z,101188.84
2022-07-28T04:04:53.937Z,101184.47
2022-07-28T04:06:58.226Z,101187.97
2022-07-28T04:09:02.515Z,101187.00
2022-07-28T04:11:07.554Z,101181.69
2022-07-28T04:13:12.681Z,101173.69
2022-07-28T04:15:17.562Z,101178.06
2022-07-28T04:17:21.882Z,101180.72
2022-07-28T04:19:27.680Z,101180.59
2022-07-28T04:21:32.184Z,101177.09
2022-07-28T04:23:36.197Z,101178.91
2022-07-28T04:25:40.471Z,101173.69
2022-07-28T04:27:45.650Z,101176.47
2022-07-28T04:29:49.996Z,101178.38
2022-07-28T04:31:54.167Z,101181.16
2022-07-28T04:34:00.453Z,101179.56
2022-07-28T04:36:06.631Z,101177.88
2022-07-28T04:38:14.277Z,101178.72
2022-07-28T04:40:20.062Z,101171.69
2022-07-28T04:42:24.426Z,101172.66
2022-07-28T04:44:28.385Z,101176.19
2022-07-28T04:46:32.508Z,101178.00
2022-07-28T04:48:36.744Z,101177.88
2022-07-28T04:50:42.580Z,101178.00
2022-07-28T04:52:49.809Z,101177.00
2022-07-28T04:54:54.058Z,101173.50
2022-07-28T04:56:58.567Z,101172.56
2022-07-28T04:59:05.211Z,101178.72
2022-07-28T05:01:10.276Z,101175.22
2022-07-28T05:03:14.757Z,101168.91
2022-07-28T05:05:21.247Z,101176.91
2022-07-28T05:07:25.767Z,101170.50
2022-07-28T05:09:32.046Z,101175.09
2022-07-28T05:11:36.701Z,101173.16
2022-07-28T05:13:41.494Z,101177.53
2022-07-28T05:15:46.429Z,101174.75
2022-07-28T05:17:50.714Z,101173.91
2022-07-28T05:19:55.464Z,101170.38
2022-07-28T05:21:59.466Z,101173.91
2022-07-28T05:24:03.936Z,101173.91
2022-07-28T05:26:09.354Z,101174.53
2022-07-28T05:28:14.086Z,101177.09
2022-07-28T05:30:19.326Z,101179.66
2022-07-28T05:32:23.857Z,101175.16
2022-07-28T05:34:28.263Z,101184.75
2022-07-28T05:36:32.482Z,101184.53
2022-07-28T05:38:36.768Z,101186.22
2022-07-28T05:40:41.504Z,101182.59
2022-07-28T05:42:48.174Z,101176.22
2022-07-28T05:44:52.291Z,101182.13
2022-07-28T05:46:56.346Z,101184.50
2022-07-28T05:49:00.668Z,101177.22
2022-07-28T05:51:05.728Z,101181.34
2022-07-28T05:53:09.868Z,101181.13
2022-07-28T05:55:14.320Z,101173.63
2022-07-28T05:57:18.732Z,101178.72
2022-07-28T05:59:24.447Z,101175.84
2022-07-28T06:01:28.490Z,101181.78
2022-07-28T06:03:41.542Z,101180.72
2022-07-28T06:06:14.392Z,101165.22
2022-07-28T06:08:10.772Z,101172.78
2022-07-28T06:10:16.686Z,101169.13
2022-07-28T06:12:21.381Z,101180.16
2022-07-28T06:14:27.089Z,101179.31
2022-07-28T06:16:31.503Z,101175.91
2022-07-28T06:18:35.920Z,101178.56
2022-07-28T06:20:40.050Z,101181.09
2022-07-28T06:22:45.770Z,101186.19
2022-07-28T06:24:50.120Z,101181.50
2022-07-28T06:26:54.199Z,101174.00
2022-07-28T06:28:57.802Z,101180.06
2022-07-28T06:31:02.863Z,101179.09
2022-07-28T06:33:08.198Z,101180.06
2022-07-28T06:35:14.945Z,101189.38
2022-07-28T06:37:19.039Z,101184.03
2022-07-28T06:39:22.844Z,101196.31
2022-07-28T06:41:26.674Z,101187.22
2022-07-28T06:43:30.686Z,101187.59
2022-07-28T06:45:34.726Z,101189.06
2022-07-28T06:47:45.824Z,101186.03
2022-07-28T06:49:51.695Z,101180.19
2022-07-28T06:51:55.334Z,101188.31
2022-07-28T06:53:59.713Z,101192.03
2022-07-28T06:56:05.419Z,101192.78
2022-07-28T06:58:10.171Z,101194.16
2022-07-28T07:00:14.702Z,101191.63
2022-07-28T07:02:19.206Z,101192.00
2022-07-28T07:04:24.390Z,101189.22
2022-07-28T07:06:28.065Z,101186.94
2022-07-28T07:08:31.832Z,101187.59
2022-07-28T07:10:36.378Z,101188.44
2022-07-28T07:12:40.512Z,101182.34
2022-07-28T07:14:44.066Z,101189.59
2022-07-28T07:16:47.865Z,101189.84
2022-07-28T07:18:53.238Z,101181.34
2022-07-28T07:20:59.743Z,101184.72
2022-07-28T07:23:03.438Z,101190.44
2022-07-28T07:25:10.787Z,101191.09
2022-07-28T07:27:14.517Z,101185.09
2022-07-28T07:29:18.286Z,101186.19
2022-07-28T07:31:22.867Z,101184.50
2022-07-28T07:33:26.566Z,101193.47
2022-07-28T07:35:30.451Z,101188.84
2022-07-28T07:37:35.688Z,101187.78
2022-07-28T07:39:39.426Z,101183.81
2022-07-28T07:41:43.541Z,101184.69
2022-07-28T07:43:48.352Z,101187.34
2022-07-28T07:45:52.097Z,101191.13
2022-07-28T07:47:55.714Z,101190.88
2022-07-28T07:50:01.850Z,101189.78
2022-07-28T07:52:07.870Z,101184.34
2022-07-28T07:54:13.223Z,101188.81
2022-07-28T07:56:18.577Z,101188.56
2022-07-28T07:58:22.842Z,101185.81
2022-07-28T08:00:29.282Z,101189.44
2022-07-28T08:02:33.183Z,101186.31
2022-07-28T08:04:37.072Z,101189.69
2022-07-28T08:06:41.389Z,101192.47
2022-07-28T08:08:48.495Z,101191.41
2022-07-28T08:10:54.632Z,101190.19
2022-07-28T08:12:58.526Z,101194.44
2022-07-28T08:15:02.302Z,101190.78
2022-07-28T08:17:06.402Z,101191.13
2022-07-28T08:19:10.408Z,101202.44
2022-07-28T08:21:16.469Z,101204.03
2022-07-28T08:23:26.051Z,101205.72
2022-07-28T08:25:30.213Z,101194.28
2022-07-28T08:27:36.975Z,101196.50
2022-07-28T08:29:40.559Z,101201.84
2022-07-28T08:31:44.465Z,101198.78
2022-07-28T08:33:54.306Z,101192.84
2022-07-28T08:35:58.544Z,101195.63
2022-07-28T08:38:02.359Z,101196.50
2022-07-28T08:40:09.314Z,101192.97
2022-07-28T08:42:17.119Z,101191.63
2022-07-28T08:44:26.895Z,101189.59
2022-07-28T08:46:36.042Z,101192.13
2022-07-28T08:48:40.450Z,101191.50
2022-07-28T08:50:46.011Z,101184.94
2022-07-28T08:52:52.701Z,101192.50
2022-07-28T08:54:59.196Z,101191.50
2022-07-28T08:57:04.436Z,101192.59
2022-07-28T08:59:09.107Z,101187.16
2022-07-28T09:01:14.409Z,101189.56
2022-07-28T09:03:19.434Z,101188.84
2022-07-28T09:05:24.338Z,101186.28
2022-07-28T09:07:29.470Z,101189.69
2022-07-28T09:09:34.221Z,101184.72
2022-07-28T09:11:38.474Z,101180.94
2022-07-28T09:13:42.345Z,101186.78
2022-07-28T09:15:47.553Z,101185.44
2022-07-28T09:17:53.404Z,101183.75
2022-07-28T09:19:57.430Z,101176.94
2022-07-28T09:22:02.064Z,101179.00
2022-07-28T09:24:06.818Z,101168.44
2022-07-28T09:26:12.530Z,101176.31
2022-07-28T09:28:20.137Z,101177.31
2022-07-28T09:30:32.005Z,101172.81
2022-07-28T09:32:36.266Z,101170.72
2022-07-28T09:34:46.540Z,101167.34
2022-07-28T09:36:51.098Z,101169.28
2022-07-28T09:38:56.944Z,101164.31
2022-07-28T09:41:03.088Z,101165.13
2022-07-28T09:43:07.046Z,101166.34
2022-07-28T09:45:27.262Z,101165.09
2022-07-28T09:47:33.389Z,101161.56
2022-07-28T09:49:45.045Z,101160.72
2022-07-28T09:52:02.711Z,101164.31
2022-07-28T09:54:13.213Z,101166.25
2022-07-28T09:56:18.861Z,101157.59
2022-07-28T09:58:23.046Z,101149.66
2022-07-28T10:00:31.897Z,101157.09
2022-07-28T10:02:37.118Z,101159.88
2022-07-28T10:04:42.348Z,101155.44
2022-07-28T10:06:47.718Z,101156.06
2022-07-28T10:08:52.885Z,101156.75
2022-07-28T10:11:03.874Z,101156.75
2022-07-28T10:13:07.828Z,101157.75
2022-07-28T10:15:31.479Z,101158.16
2022-07-28T10:17:36.305Z,101163.78
2022-07-28T10:19:40.931Z,101162.28
2022-07-28T10:21:46.779Z,101162.84
2022-07-28T10:23:52.396Z,101157.03
2022-07-28T10:25:58.208Z,101156.06
2022-07-28T10:28:03.421Z,101163.00
2022-07-28T10:30:09.261Z,101157.19
2022-07-28T10:32:13.242Z,101156.56
2022-07-28T10:34:25.013Z,101161.94
2022-07-28T10:36:29.839Z,101159.59
2022-07-28T10:38:37.912Z,101161.47
2022-07-28T10:40:44.290Z,101164.50
2022-07-28T10:42:48.263Z,101166.88
2022-07-28T10:44:54.528Z,101172.09
2022-07-28T10:46:59.483Z,101164.47
2022-07-28T10:49:05.414Z,101163.56
2022-07-28T10:51:14.170Z,101162.03
2022-07-28T10:53:28.282Z,101164.94
2022-07-28T10:55:46.459Z,101167.34
2022-07-28T10:58:11.417Z,101169.00
2022-07-28T11:00:26.420Z,101162.34
2022-07-28T11:02:48.955Z,101174.88
2022-07-28T11:04:55.673Z,101169.19
2022-07-28T11:07:12.249Z,101164.84
2022-07-28T11:09:24.622Z,101167.84
2022-07-28T11:11:51.282Z,101163.50
2022-07-28T11:13:55.949Z,101150.94
2022-07-28T11:16:19.113Z,101155.56
2022-07-28T11:18:24.134Z,101153.50
2022-07-28T11:21:00.836Z,101152.47
2022-07-28T11:23:38.140Z,101142.06
2022-07-28T11:25:42.339Z,101151.13
2022-07-28T11:28:04.812Z,101153.03
2022-07-28T11:30:08.730Z,101145.41
2022-07-28T11:32:12.684Z,101143.28
2022-07-28T11:34:18.840Z,101146.81
2022-07-28T11:36:23.411Z,101148.28
2022-07-28T11:38:27.869Z,101147.69
2022-07-28T11:40:33.416Z,101141.38
2022-07-28T11:42:37.525Z,101146.47
2022-07-28T11:44:43.028Z,101149.50
2022-07-28T11:46:46.986Z,101150.31
2022-07-28T11:49:19.037Z,101153.19
2022-07-28T11:51:23.681Z,101153.94
2022-07-28T11:53:34.258Z,101150.75
2022-07-28T11:55:55.322Z,101152.03
2022-07-28T11:58:03.730Z,101151.59
2022-07-28T12:00:10.670Z,101157.22
2022-07-28T12:02:19.178Z,101158.84
2022-07-28T12:04:28.034Z,101156.88
2022-07-28T12:06:37.662Z,101160.22
2022-07-28T12:08:57.020Z,101159.66
2022-07-28T12:11:00.967Z,101160.34
2022-07-28T12:13:07.551Z,101153.28
2022-07-28T12:15:16.592Z,101164.72
2022-07-28T12:17:20.314Z,101150.19
2022-07-28T12:19:32.859Z,101153.53
2022-07-28T12:21:46.415Z,101159.09
2022-07-28T12:23:55.620Z,101162.88
2022-07-28T12:26:01.851Z,101164.53
2022-07-28T12:28:18.881Z,101160.59
2022-07-28T12:30:26.754Z,101159.75
2022-07-28T12:32:35.636Z,101155.78
2022-07-28T12:34:43.819Z,101161.16
2022-07-28T12:36:48.341Z,101150.75
2022-07-28T12:38:52.895Z,101147.41
2022-07-28T12:40:56.874Z,101154.94
2022-07-28T12:43:00.470Z,101148.28
2022-07-28T12:45:07.673Z,101148.69
2022-07-28T12:47:14.316Z,101145.69
2022-07-28T12:49:24.557Z,101146.53
2022-07-28T12:51:33.049Z,101139.16
2022-07-28T12:53:36.929Z,101142.50
2022-07-28T12:55:43.783Z,101142.50
2022-07-28T12:57:50.999Z,101151.97
2022-07-28T13:00:08.075Z,101147.00
2022-07-28T13:02:13.572Z,101145.72
2022-07-28T13:04:18.521Z,101143.59
2022-07-28T13:06:22.794Z,101146.22
2022-07-28T13:08:38.551Z,101144.81
2022-07-28T13:10:49.023Z,101152.63
2022-07-28T13:13:02.358Z,101147.00
2022-07-28T13:15:16.491Z,101151.13
2022-07-28T13:17:22.620Z,101149.00
2022-07-28T13:19:26.549Z,101143.78
2022-07-28T13:21:58.406Z,101153.16
2022-07-28T13:24:03.494Z,101152.19
2022-07-28T13:26:08.878Z,101146.81
2022-07-28T13:28:28.937Z,101153.88
2022-07-28T13:30:32.608Z,101149.22
2022-07-28T13:32:38.165Z,101152.81
2022-07-28T13:34:47.165Z,101152.94
2022-07-28T13:36:50.889Z,101153.22
2022-07-28T13:38:54.601Z,101146.84
2022-07-28T13:40:58.484Z,101149.53
2022-07-28T13:43:02.173Z,101147.28
2022-07-28T13:45:30.279Z,101142.91
2022-07-28T13:47:38.873Z,101145.75
2022-07-28T13:49:44.873Z,101146.56
2022-07-28T13:51:51.049Z,101142.75
2022-07-28T13:53:55.664Z,101139.22
2022-07-28T13:56:00.300Z,101139.97
2022-07-28T13:58:08.455Z,101137.28
2022-07-28T14:00:13.836Z,101144.03
2022-07-28T14:02:17.526Z,101147.28
2022-07-28T14:04:22.001Z,101158.28
2022-07-28T14:06:28.065Z,101160.56
2022-07-28T14:08:31.909Z,101153.59
2022-07-28T14:10:36.020Z,101161.50
2022-07-28T14:12:40.370Z,101157.84
2022-07-28T14:14:48.532Z,101158.38
2022-07-28T14:16:54.369Z,101159.34
2022-07-28T14:18:58.876Z,101157.81
2022-07-28T14:21:03.539Z,101153.97
2022-07-28T14:23:08.742Z,101162.16
2022-07-28T14:25:13.509Z,101154.53
2022-07-28T14:27:28.944Z,101156.34
2022-07-28T14:29:33.108Z,101153.81
2022-07-28T14:31:37.097Z,101152.41
2022-07-28T14:33:46.355Z,101150.75
2022-07-28T14:35:51.146Z,101155.97
2022-07-28T14:40:20.137Z,101165.25
2022-07-28T14:42:24.334Z,101156.78
2022-07-28T14:44:28.403Z,101153.81
2022-07-28T14:46:33.369Z,101156.94
2022-07-28T14:48:37.120Z,101160.34
2022-07-28T14:50:41.060Z,101164.16
2022-07-28T14:52:45.301Z,101162.31
2022-07-28T14:54:49.433Z,101158.94
2022-07-28T14:56:54.645Z,101160.75
2022-07-28T14:58:58.134Z,101150.88
2022-07-28T15:01:02.142Z,101160.59
2022-07-28T15:03:06.145Z,101158.50
2022-07-28T15:05:11.351Z,101160.59
2022-07-28T15:07:15.147Z,101158.94
2022-07-28T15:09:18.888Z,101154.78
2022-07-28T15:11:22.453Z,101153.28
2022-07-28T15:13:28.637Z,101155.00
2022-07-28T15:15:32.212Z,101153.28
2022-07-28T15:17:36.131Z,101149.56
2022-07-28T15:19:39.974Z,101147.34
2022-07-28T15:21:45.870Z,101138.31
2022-07-28T15:23:49.493Z,101147.47
2022-07-28T15:25:53.911Z,101150.97
2022-07-28T15:27:58.039Z,101140.97
2022-07-28T15:30:03.506Z,101142.47
2022-07-28T15:32:10.710Z,101142.34
2022-07-28T15:34:17.106Z,101140.66
2022-07-28T15:36:20.904Z,101137.41
2022-07-28T15:38:24.631Z,101136.28
2022-07-28T15:40:28.167Z,101138.50
2022-07-28T15:42:31.725Z,101145.84
2022-07-28T15:44:35.357Z,101139.91
2022-07-28T15:46:40.605Z,101144.72
2022-07-28T15:48:45.378Z,101148.06
2022-07-28T15:50:49.342Z,101143.84
2022-07-28T15:52:53.066Z,101149.78
2022-07-28T15:54:57.059Z,101146.66
2022-07-28T15:57:00.604Z,101143.41
2022-07-28T15:59:06.615Z,101142.72
2022-07-28T16:01:10.174Z,101146.09
2022-07-28T16:03:15.795Z,101155.56
2022-07-28T16:05:19.601Z,101145.28
2022-07-28T16:07:24.666Z,101152.81
2022-07-28T16:09:45.338Z,101152.94
2022-07-28T16:11:50.615Z,101144.91
2022-07-28T16:13:54.342Z,101144.91
2022-07-28T16:15:58.144Z,101151.38
2022-07-28T16:18:01.918Z,101157.16
2022-07-28T16:20:10.430Z,101162.50
2022-07-28T16:22:14.118Z,101167.34
2022-07-28T16:24:18.254Z,101162.69
2022-07-28T16:26:21.977Z,101159.16
2022-07-28T16:28:25.640Z,101162.81
2022-07-28T16:30:31.036Z,101159.97
2022-07-28T16:32:35.147Z,101160.81
2022-07-28T16:34:38.989Z,101159.34
2022-07-28T16:36:44.215Z,101166.09
2022-07-28T16:38:47.977Z,101164.50
2022-07-28T16:40:51.898Z,101163.84
2022-07-28T16:42:55.475Z,101168.16
2022-07-28T16:44:59.626Z,101164.47
2022-07-28T16:47:03.334Z,101166.94
2022-07-28T16:49:07.085Z,101167.47
2022-07-28T16:51:11.752Z,101165.41
2022-07-28T16:53:16.926Z,101167.53
2022-07-28T16:55:23.584Z,101174.13
2022-07-28T16:57:27.711Z,101166.59
2022-07-28T16:59:37.696Z,101161.72
2022-07-28T17:01:53.341Z,101163.41
2022-07-28T17:03:57.082Z,101175.81
2022-07-28T17:06:00.689Z,101162.19
2022-07-28T17:08:05.171Z,101173.16
2022-07-28T17:10:11.850Z,101177.91
2022-07-28T17:12:15.403Z,101162.25
2022-07-28T17:14:19.259Z,101163.22
2022-07-28T17:16:23.483Z,101171.25
2022-07-28T17:18:27.710Z,101162.34
2022-07-28T17:20:32.512Z,101170.38
2022-07-28T17:22:36.249Z,101168.44
2022-07-28T17:24:39.904Z,101162.81
2022-07-28T17:29:11.872Z,101168.09
2022-07-28T17:31:15.709Z,101168.44
2022-07-28T17:33:19.619Z,101168.38
2022-07-28T17:35:34.267Z,101166.03
2022-07-28T17:37:38.982Z,101170.13
2022-07-28T17:39:42.806Z,101162.50
2022-07-28T17:41:47.917Z,101167.97
2022-07-28T17:43:51.739Z,101167.13
2022-07-28T17:45:56.522Z,101168.81
2022-07-28T17:48:00.645Z,101170.53
2022-07-28T17:50:04.940Z,101172.91
2022-07-28T17:52:09.168Z,101173.38
2022-07-28T17:54:15.955Z,101175.91
2022-07-28T17:56:20.515Z,101169.59
2022-07-28T17:58:32.676Z,101164.84
2022-07-28T18:00:36.765Z,101168.22
2022-07-28T18:02:40.816Z,101169.78
2022-07-28T18:04:45.083Z,101171.34
2022-07-28T18:06:48.954Z,101173.66
2022-07-28T18:08:52.482Z,101166.06
2022-07-28T18:10:56.425Z,101173.81
2022-07-28T18:13:00.567Z,101170.59
2022-07-28T18:15:06.556Z,101178.16
2022-07-28T18:17:10.771Z,101174.03
2022-07-28T18:19:14.935Z,101174.78
2022-07-28T18:21:18.574Z,101171.09
2022-07-28T18:23:23.617Z,101172.19
2022-07-28T18:25:29.555Z,101176.69
2022-07-28T18:27:33.330Z,101171.34
2022-07-28T18:29:38.906Z,101176.47
2022-07-28T18:31:46.857Z,101172.81
2022-07-28T18:33:51.031Z,101176.91
2022-07-28T18:35:54.984Z,101169.47
2022-07-28T18:37:59.680Z,101177.38
2022-07-28T18:40:04.536Z,101165.94
2022-07-28T18:42:08.557Z,101181.28
2022-07-28T18:44:12.722Z,101186.06
2022-07-28T18:46:17.298Z,101175.00
2022-07-28T18:48:25.714Z,101181.22
2022-07-28T18:50:31.486Z,101184.03
2022-07-28T18:52:36.403Z,101187.69
2022-07-28T18:54:40.526Z,101188.78
2022-07-28T18:56:44.691Z,101184.28
2022-07-28T18:58:51.924Z,101187.69
2022-07-28T19:00:56.295Z,101191.34
2022-07-28T19:03:00.482Z,101197.44
2022-07-28T19:05:06.686Z,101201.44
2022-07-28T19:07:10.952Z,101196.78
2022-07-28T19:09:14.898Z,101189.72
2022-07-28T19:11:20.025Z,101197.03
2022-07-28T19:13:24.377Z,101198.34
2022-07-28T19:15:28.875Z,101204.25
2022-07-28T19:17:34.154Z,101195.59
2022-07-28T19:19:38.469Z,101192.44
2022-07-28T19:21:44.532Z,101200.63
2022-07-28T19:23:49.384Z,101200.63
2022-07-28T19:25:53.590Z,101201.72
2022-07-28T19:27:57.984Z,101199.19
2022-07-28T19:30:02.529Z,101201.72
2022-07-28T19:32:08.518Z,101203.56
2022-07-28T19:34:13.312Z,101211.84
2022-07-28T19:36:17.857Z,101210.41
2022-07-28T19:38:23.359Z,101212.66
2022-07-28T19:40:29.443Z,101213.88
2022-07-28T19:42:35.368Z,101209.78
2022-07-28T19:44:39.595Z,101216.38
2022-07-28T19:46:45.040Z,101211.50
2022-07-28T19:48:49.289Z,101213.72
2022-07-28T19:50:53.707Z,101211.31
2022-07-28T19:52:58.462Z,101214.25
2022-07-28T19:55:04.240Z,101216.31
2022-07-28T19:57:12.379Z,101213.06
2022-07-28T19:59:18.686Z,101213.44
2022-07-28T20:01:22.930Z,101216.00
2022-07-28T20:04:01.415Z,101219.66
2022-07-28T20:05:51.109Z,101224.00
2022-07-28T20:07:55.300Z,101219.66
2022-07-28T20:09:59.560Z,101226.81
2022-07-28T20:12:05.324Z,101223.31
2022-07-28T20:14:11.972Z,101217.34
2022-07-28T20:16:16.218Z,101217.63
2022-07-28T20:18:20.464Z,101224.06
2022-07-28T20:20:24.604Z,101227.56
2022-07-28T20:22:28.775Z,101228.56
2022-07-28T20:24:33.119Z,101236.69
2022-07-28T20:26:37.575Z,101231.59
2022-07-28T20:28:44.283Z,101235.38
2022-07-28T20:30:49.590Z,101244.63
2022-07-28T20:32:54.044Z,101238.69
2022-07-28T20:34:58.459Z,101253.16
2022-07-28T20:37:02.570Z,101250.84
2022-07-28T20:39:34.286Z,101248.31
2022-07-28T20:41:35.550Z,101252.34
2022-07-28T20:43:39.808Z,101260.56
2022-07-28T20:45:46.496Z,101259.97
2022-07-28T20:47:50.516Z,101270.06
2022-07-28T20:49:55.535Z,101269.47
2022-07-28T20:52:00.384Z,101269.72
2022-07-28T20:54:04.021Z,101273.59
2022-07-28T20:56:08.547Z,101271.28
2022-07-28T20:58:13.462Z,101280.50
2022-07-28T21:00:19.301Z,101279.91
2022-07-28T21:02:25.825Z,101280.13
2022-07-28T21:04:29.782Z,101284.03
2022-07-28T21:06:34.797Z,101285.13
2022-07-28T21:08:41.766Z,101298.72
2022-07-28T21:10:46.148Z,101290.94
2022-07-28T21:12:50.013Z,101293.88
2022-07-28T21:14:54.631Z,101296.75
2022-07-28T21:16:58.544Z,101295.09
2022-07-28T21:19:06.163Z,101295.28
2022-07-28T21:21:10.422Z,101304.31
2022-07-28T21:23:14.819Z,101298.22
2022-07-28T21:25:18.844Z,101294.84
2022-07-28T21:27:22.777Z,101298.59
2022-07-28T21:31:30.751Z,101292.63
2022-07-28T21:33:34.882Z,101289.44
2022-07-28T21:35:43.694Z,101296.00
2022-07-28T21:37:48.026Z,101298.91
2022-07-28T21:39:52.233Z,101303.63
2022-07-28T21:41:56.133Z,101303.63
2022-07-28T21:44:04.172Z,101295.97
2022-07-28T21:46:08.392Z,101308.59
2022-07-28T21:48:12.445Z,101304.34
2022-07-28T21:50:16.920Z,101296.53
2022-07-28T21:52:22.968Z,101307.22
2022-07-28T21:54:27.055Z,101305.63
2022-07-28T21:56:31.836Z,101306.50
2022-07-28T21:58:36.476Z,101304.78
2022-07-28T22:00:40.552Z,101304.16
2022-07-28T22:02:44.644Z,101302.81
2022-07-28T22:04:48.605Z,101301.91
2022-07-28T22:06:52.556Z,101309.28
2022-07-28T22:08:58.118Z,101302.22
2022-07-28T22:11:02.960Z,101295.09
2022-07-28T22:13:07.198Z,101297.75
2022-07-28T22:15:11.827Z,101300.56
2022-07-28T22:17:16.203Z,101305.97
2022-07-28T22:19:20.763Z,101298.97
2022-07-28T22:21:25.103Z,101298.22
2022-07-28T22:23:30.222Z,101298.31
2022-07-28T22:25:36.776Z,101299.41
2022-07-28T22:27:41.013Z,101299.41
2022-07-28T22:29:50.147Z,101297.69
2022-07-28T22:31:59.355Z,101293.34
2022-07-28T22:34:04.236Z,101290.69
2022-07-28T22:36:09.548Z,101296.00
2022-07-28T22:38:14.015Z,101293.56
2022-07-28T22:40:19.098Z,101296.22
2022-07-28T22:42:26.418Z,101291.00
2022-07-28T22:44:31.479Z,101291.13
2022-07-28T22:46:38.339Z,101289.41
2022-07-28T22:48:42.560Z,101289.41
2022-07-28T22:50:47.466Z,101285.28
2022-07-28T22:52:51.458Z,101280.16
2022-07-28T22:54:56.998Z,101291.06
2022-07-28T22:57:00.825Z,101294.94
2022-07-28T22:59:06.775Z,101297.78
2022-07-28T23:01:10.450Z,101297.06
2022-07-28T23:03:15.901Z,101296.31
2022-07-28T23:05:20.750Z,101299.22
2022-07-28T23:07:51.068Z,101294.00
2022-07-28T23:09:48.322Z,101286.13
2022-07-28T23:11:55.962Z,101287.94
2022-07-28T23:14:00.059Z,101286.13
2022-07-28T23:16:05.749Z,101288.03
2022-07-28T23:18:09.382Z,101286.34
2022-07-28T23:20:14.021Z,101278.34
2022-07-28T23:22:19.803Z,101286.47
2022-07-28T23:24:23.759Z,101281.34
2022-07-28T23:26:27.636Z,101279.75
2022-07-28T23:28:31.946Z,101271.03
2022-07-28T23:30:36.590Z,101287.25
2022-07-28T23:32:41.862Z,101285.75
2022-07-28T23:34:46.346Z,101293.94
2022-07-28T23:36:49.975Z,101288.97
2022-07-28T23:38:54.157Z,101288.56
2022-07-28T23:40:57.826Z,101286.94
2022-07-28T23:43:01.872Z,101289.84
2022-07-28T23:45:06.346Z,101287.28
2022-07-28T23:47:10.135Z,101283.25
2022-07-28T23:49:15.528Z,101279.22
2022-07-28T23:51:19.395Z,101286.56
2022-07-28T23:53:23.274Z,101293.69
2022-07-28T23:55:26.942Z,101297.09
2022-07-28T23:57:31.551Z,101284.56
2022-07-28T23:59:35.618Z,101292.31
